createdAt,value
2017-11-26T00:00:59.010Z,1.47
2017-11-26T00:02:03.912Z,1.50
2017-11-26T00:03:08.752Z,1.22
2017-11-26T00:04:13.766Z,1.40
2017-11-26T00:05:18.587Z,1.39
2017-11-26T00:06:23.370Z,1.17
2017-11-26T00:07:28.551Z,1.49
2017-11-26T00:08:33.434Z,1.35
2017-11-26T00:09:38.171Z,1.47
2017-11-26T00:10:42.917Z,1.29
2017-11-26T00:11:47.943Z,1.38
2017-11-26T00:12:52.804Z,1.45
2017-11-26T00:13:58.307Z,1.32
2017-11-26T00:15:03.105Z,1.30
2017-11-26T00:16:08.184Z,1.23
2017-11-26T00:17:13.017Z,1.36
2017-11-26T00:18:18.061Z,1.50
2017-11-26T00:19:23.210Z,1.43
2017-11-26T00:20:28.036Z,1.35
2017-11-26T00:21:32.825Z,1.26
2017-11-26T00:22:37.740Z,1.28
2017-11-26T00:23:42.656Z,1.44
2017-11-26T00:24:47.379Z,1.37
2017-11-26T00:25:52.582Z,1.13
2017-11-26T00:26:57.482Z,1.16
2017-11-26T00:28:02.499Z,1.23
2017-11-26T00:29:07.504Z,1.21
2017-11-26T00:30:12.187Z,1.35
2017-11-26T00:31:17.128Z,1.26
2017-11-26T00:32:22.298Z,1.10
2017-11-26T00:33:26.963Z,1.04
2017-11-26T00:34:31.874Z,1.17
2017-11-26T00:35:36.871Z,1.18
2017-11-26T00:36:41.809Z,1.21
2017-11-26T00:37:46.769Z,1.08
2017-11-26T00:38:51.758Z,1.26
2017-11-26T00:39:56.546Z,1.41
2017-11-26T00:41:01.505Z,1.37
2017-11-26T00:42:06.411Z,1.50
2017-11-26T00:43:11.427Z,1.25
2017-11-26T00:44:16.347Z,1.17
2017-11-26T00:45:21.449Z,1.08
2017-11-26T00:46:26.967Z,1.32
2017-11-26T00:47:31.715Z,1.30
2017-11-26T00:48:36.454Z,1.28
2017-11-26T00:49:41.225Z,1.16
2017-11-26T00:50:46.193Z,1.37
2017-11-26T00:51:51.194Z,1.28
2017-11-26T00:52:55.874Z,1.23
2017-11-26T00:54:00.721Z,1.25
2017-11-26T00:55:05.570Z,1.39
2017-11-26T00:56:10.270Z,1.48
2017-11-26T00:57:14.931Z,1.25
2017-11-26T00:58:19.864Z,1.16
2017-11-26T00:59:24.785Z,1.12
2017-11-26T01:00:29.659Z,1.35
2017-11-26T01:01:34.399Z,1.22
2017-11-26T01:02:39.333Z,1.30
2017-11-26T01:03:44.068Z,1.40
2017-11-26T01:04:49.164Z,1.39
2017-11-26T01:05:53.904Z,1.26
2017-11-26T01:06:58.561Z,1.41
2017-11-26T01:08:03.491Z,1.47
2017-11-26T01:09:08.190Z,1.31
2017-11-26T01:10:12.904Z,1.33
2017-11-26T01:11:18.087Z,1.44
2017-11-26T01:12:22.814Z,1.54
2017-11-26T01:13:27.649Z,1.33
2017-11-26T01:14:32.449Z,1.26
2017-11-26T01:15:37.255Z,1.09
2017-11-26T01:16:42.370Z,1.28
2017-11-26T01:17:47.458Z,1.25
2017-11-26T01:18:52.463Z,1.40
2017-11-26T01:19:57.393Z,1.21
2017-11-26T01:21:02.224Z,1.21
2017-11-26T01:22:07.401Z,1.32
2017-11-26T01:23:12.350Z,1.28
2017-11-26T01:24:17.157Z,1.43
2017-11-26T01:25:22.214Z,1.26
2017-11-26T01:26:26.999Z,1.35
2017-11-26T01:27:31.758Z,1.40
2017-11-26T01:28:37.638Z,1.44
2017-11-26T01:29:43.394Z,1.36
2017-11-26T01:30:48.637Z,1.52
2017-11-26T01:31:53.368Z,1.35
2017-11-26T01:32:58.116Z,1.33
2017-11-26T01:34:03.003Z,1.24
2017-11-26T01:35:07.946Z,1.36
2017-11-26T01:36:13.225Z,1.38
2017-11-26T01:37:18.030Z,1.49
2017-11-26T01:38:22.834Z,1.56
2017-11-26T01:39:27.642Z,1.47
2017-11-26T01:40:32.704Z,1.41
2017-11-26T01:41:37.521Z,1.23
2017-11-26T01:42:42.997Z,1.22
2017-11-26T01:43:48.326Z,1.32
2017-11-26T01:44:53.441Z,1.28
2017-11-26T01:45:58.172Z,1.42
2017-11-26T01:47:03.377Z,1.39
2017-11-26T01:48:08.377Z,1.55
2017-11-26T01:49:13.672Z,1.65
2017-11-26T01:50:18.506Z,1.33
2017-11-26T01:51:23.343Z,1.39
2017-11-26T01:52:28.853Z,1.40
2017-11-26T01:53:33.816Z,1.45
2017-11-26T01:54:38.675Z,1.43
2017-11-26T01:55:43.827Z,1.43
2017-11-26T01:56:48.427Z,1.61
2017-11-26T01:57:53.023Z,1.51
2017-11-26T01:58:57.806Z,1.53
2017-11-26T02:00:02.537Z,1.50
2017-11-26T02:01:07.345Z,1.51
2017-11-26T02:02:12.503Z,1.57
2017-11-26T02:03:17.579Z,1.52
2017-11-26T02:04:22.597Z,1.46
2017-11-26T02:05:27.990Z,1.61
2017-11-26T02:06:32.948Z,1.53
2017-11-26T02:07:37.893Z,1.69
2017-11-26T02:08:43.084Z,1.43
2017-11-26T02:09:47.908Z,1.51
2017-11-26T02:10:52.841Z,1.61
2017-11-26T02:11:57.580Z,1.60
2017-11-26T02:13:02.301Z,1.69
2017-11-26T02:14:07.149Z,1.75
2017-11-26T02:15:12.191Z,1.57
2017-11-26T02:16:16.956Z,1.60
2017-11-26T02:17:21.767Z,1.57
2017-11-26T02:18:26.590Z,1.47
2017-11-26T02:19:31.549Z,1.48
2017-11-26T02:20:36.413Z,1.68
2017-11-26T02:21:41.536Z,1.66
2017-11-26T02:22:46.472Z,1.54
2017-11-26T02:23:57.123Z,1.75
2017-11-26T02:25:02.048Z,1.63
2017-11-26T02:26:07.135Z,1.62
2017-11-26T02:27:11.841Z,1.56
2017-11-26T02:28:16.842Z,1.67
2017-11-26T02:29:21.599Z,1.46
2017-11-26T02:30:26.539Z,1.55
2017-11-26T02:31:35.474Z,1.50
2017-11-26T02:34:47.683Z,1.71
2017-11-26T02:35:56.713Z,1.60
2017-11-26T02:37:01.496Z,1.63
2017-11-26T02:38:06.251Z,1.65
2017-11-26T02:39:11.506Z,1.59
2017-11-26T02:40:16.299Z,1.63
2017-11-26T02:41:21.391Z,1.78
2017-11-26T02:42:26.132Z,1.59
2017-11-26T02:43:30.918Z,1.73
2017-11-26T02:44:35.657Z,1.69
2017-11-26T02:45:40.411Z,1.78
2017-11-26T02:46:45.127Z,1.74
2017-11-26T02:47:50.137Z,1.65
2017-11-26T02:48:54.736Z,1.72
2017-11-26T02:49:59.330Z,1.73
2017-11-26T02:51:04.102Z,1.78
2017-11-26T02:52:08.825Z,1.68
2017-11-26T02:53:13.548Z,1.80
2017-11-26T02:54:19.517Z,1.71
2017-11-26T02:55:24.207Z,1.74
2017-11-26T02:56:28.994Z,1.76
2017-11-26T02:57:33.659Z,1.83
2017-11-26T02:58:38.309Z,1.88
2017-11-26T02:59:42.984Z,1.85
2017-11-26T03:00:47.909Z,1.88
2017-11-26T03:01:52.554Z,1.81
2017-11-26T03:02:57.264Z,1.75
2017-11-26T03:04:01.941Z,1.75
2017-11-26T03:05:06.625Z,1.74
2017-11-26T03:06:11.243Z,1.74
2017-11-26T03:07:16.153Z,1.63
2017-11-26T03:08:20.788Z,1.87
2017-11-26T03:09:25.406Z,1.87
2017-11-26T03:10:30.040Z,1.76
2017-11-26T03:11:34.793Z,1.83
2017-11-26T03:12:39.433Z,1.79
2017-11-26T03:13:44.452Z,1.79
2017-11-26T03:14:49.118Z,1.87
2017-11-26T03:15:53.784Z,1.89
2017-11-26T03:16:58.431Z,1.78
2017-11-26T03:18:04.080Z,1.97
2017-11-26T03:19:08.813Z,1.92
2017-11-26T03:20:13.752Z,1.79
2017-11-26T03:21:18.458Z,1.81
2017-11-26T03:22:23.160Z,1.77
2017-11-26T03:23:27.793Z,1.80
2017-11-26T03:24:32.450Z,1.92
2017-11-26T03:25:37.116Z,1.71
2017-11-26T03:26:42.193Z,1.68
2017-11-26T03:27:47.058Z,1.82
2017-11-26T03:28:51.837Z,1.73
2017-11-26T03:29:56.503Z,1.88
2017-11-26T03:31:01.253Z,1.84
2017-11-26T03:32:05.948Z,1.89
2017-11-26T03:33:11.003Z,1.93
2017-11-26T03:34:15.645Z,1.88
2017-11-26T03:35:20.397Z,1.78
2017-11-26T03:36:25.151Z,1.98
2017-11-26T03:37:29.866Z,1.93
2017-11-26T03:38:34.765Z,1.78
2017-11-26T03:39:39.943Z,2.01
2017-11-26T03:40:44.784Z,1.87
2017-11-26T03:41:49.654Z,1.87
2017-11-26T03:42:54.406Z,1.99
2017-11-26T03:43:59.123Z,1.91
2017-11-26T03:45:03.938Z,1.88
2017-11-26T03:46:08.932Z,1.88
2017-11-26T03:47:13.673Z,1.94
2017-11-26T03:48:18.387Z,1.97
2017-11-26T03:49:23.082Z,1.94
2017-11-26T03:50:27.786Z,1.92
2017-11-26T03:51:32.433Z,1.86
2017-11-26T03:52:37.335Z,1.79
2017-11-26T03:53:41.958Z,1.82
2017-11-26T03:54:46.647Z,1.89
2017-11-26T03:55:51.313Z,1.88
2017-11-26T03:56:55.998Z,1.72
2017-11-26T03:58:00.761Z,1.84
2017-11-26T03:59:05.791Z,1.75
2017-11-26T04:00:10.527Z,1.75
2017-11-26T04:01:15.215Z,1.73
2017-11-26T04:02:19.974Z,1.83
2017-11-26T04:03:24.697Z,1.81
2017-11-26T04:04:29.453Z,1.92
2017-11-26T04:05:34.525Z,1.84
2017-11-26T04:06:39.244Z,1.94
2017-11-26T04:07:43.950Z,1.91
2017-11-26T04:08:48.726Z,1.94
2017-11-26T04:09:53.477Z,1.89
2017-11-26T04:10:58.207Z,1.87
2017-11-26T04:12:03.284Z,1.76
2017-11-26T04:13:08.016Z,1.87
2017-11-26T04:14:12.734Z,1.88
2017-11-26T04:15:17.461Z,1.84
2017-11-26T04:16:22.225Z,1.81
2017-11-26T04:17:26.957Z,1.81
2017-11-26T04:18:31.936Z,1.77
2017-11-26T04:19:36.705Z,1.80
2017-11-26T04:20:41.424Z,1.93
2017-11-26T04:21:46.203Z,1.82
2017-11-26T04:22:50.980Z,1.68
2017-11-26T04:23:56.306Z,1.68
2017-11-26T04:25:02.158Z,1.73
2017-11-26T04:26:06.885Z,1.64
2017-11-26T04:27:11.664Z,1.73
2017-11-26T04:28:16.444Z,1.83
2017-11-26T04:29:21.214Z,1.94
2017-11-26T04:30:25.939Z,1.84
2017-11-26T04:31:30.961Z,1.81
2017-11-26T04:32:35.735Z,1.84
2017-11-26T04:33:40.458Z,1.79
2017-11-26T04:34:45.151Z,1.66
2017-11-26T04:35:49.887Z,1.80
2017-11-26T04:36:54.683Z,1.74
2017-11-26T04:37:59.740Z,1.74
2017-11-26T04:39:04.551Z,1.77
2017-11-26T04:40:09.313Z,1.82
2017-11-26T04:41:14.137Z,1.78
2017-11-26T04:42:18.961Z,1.75
2017-11-26T04:43:23.709Z,1.73
2017-11-26T04:44:28.737Z,1.78
2017-11-26T04:45:33.428Z,1.70
2017-11-26T04:46:38.184Z,1.73
2017-11-26T04:47:42.997Z,1.71
2017-11-26T04:48:47.736Z,1.63
2017-11-26T04:49:52.542Z,1.67
2017-11-26T04:50:57.326Z,1.70
2017-11-26T04:52:02.068Z,1.71
2017-11-26T04:53:06.804Z,1.65
2017-11-26T04:54:11.542Z,1.79
2017-11-26T04:55:16.188Z,1.70
2017-11-26T04:56:20.827Z,1.50
2017-11-26T04:57:25.831Z,1.57
2017-11-26T04:58:30.490Z,1.59
2017-11-26T04:59:35.179Z,1.57
2017-11-26T05:15:21.555Z,1.54
2017-11-26T05:16:26.343Z,1.53
2017-11-26T05:17:31.070Z,1.66
2017-11-26T05:18:35.820Z,1.58
2017-11-26T05:19:40.601Z,1.57
2017-11-26T05:20:45.765Z,1.52
2017-11-26T05:21:50.544Z,1.67
2017-11-26T05:22:55.308Z,1.51
2017-11-26T05:24:00.054Z,1.63
2017-11-26T05:25:04.836Z,1.56
2017-11-26T05:26:09.598Z,1.54
2017-11-26T05:27:14.666Z,1.59
2017-11-26T05:28:19.372Z,1.57
2017-11-26T05:29:24.127Z,1.53
2017-11-26T05:30:28.904Z,1.57
2017-11-26T05:31:33.657Z,1.49
2017-11-26T05:32:38.383Z,1.52
2017-11-26T05:33:43.569Z,1.61
2017-11-26T05:34:48.448Z,1.46
2017-11-26T05:35:53.191Z,1.58
2017-11-26T05:36:57.976Z,1.66
2017-11-26T05:38:02.830Z,1.58
2017-11-26T05:39:07.747Z,1.53
2017-11-26T05:40:13.741Z,1.57
2017-11-26T05:41:18.506Z,1.61
2017-11-26T05:42:23.272Z,1.70
2017-11-26T05:43:28.039Z,1.41
2017-11-26T05:44:32.808Z,1.53
2017-11-26T05:45:37.665Z,1.49
2017-11-26T05:46:42.720Z,1.63
2017-11-26T05:47:47.937Z,1.54
2017-11-26T05:48:52.546Z,1.60
2017-11-26T05:49:57.243Z,1.58
2017-11-26T05:51:01.765Z,1.64
2017-11-26T05:52:06.286Z,1.65
2017-11-26T05:53:11.183Z,1.53
2017-11-26T05:54:15.764Z,1.48
2017-11-26T05:55:20.900Z,1.39
2017-11-26T05:56:25.410Z,1.54
2017-11-26T05:57:30.023Z,1.37
2017-11-26T05:58:34.717Z,1.47
2017-11-26T05:59:39.838Z,1.47
2017-11-26T06:00:44.814Z,1.41
2017-11-26T06:01:49.528Z,1.63
2017-11-26T06:05:44.671Z,1.65
2017-11-26T06:06:49.134Z,1.68
2017-11-26T06:07:53.576Z,1.69
2017-11-26T06:08:57.984Z,1.71
2017-11-26T06:10:02.651Z,1.68
2017-11-26T06:11:07.193Z,1.69
2017-11-26T06:12:12.256Z,1.57
2017-11-26T06:13:16.863Z,1.74
2017-11-26T06:14:21.454Z,1.69
2017-11-26T06:15:26.105Z,1.64
2017-11-26T06:16:30.769Z,1.57
2017-11-26T06:17:35.428Z,1.62
2017-11-26T06:18:40.620Z,1.69
2017-11-26T06:19:45.147Z,1.71
2017-11-26T06:20:49.821Z,1.62
2017-11-26T06:21:54.485Z,1.68
2017-11-26T06:22:59.093Z,1.70
2017-11-26T06:24:03.649Z,1.60
2017-11-26T06:25:08.659Z,1.77
2017-11-26T06:26:13.277Z,1.79
2017-11-26T06:27:18.075Z,1.58
2017-11-26T06:28:22.732Z,1.71
2017-11-26T06:29:27.385Z,1.84
2017-11-26T06:30:32.046Z,1.65
2017-11-26T06:31:37.110Z,1.65
2017-11-26T06:32:41.850Z,1.66
2017-11-26T06:33:46.577Z,1.59
2017-11-26T06:34:51.242Z,1.69
2017-11-26T06:35:55.940Z,1.69
2017-11-26T06:37:00.673Z,1.71
2017-11-26T06:38:06.005Z,1.73
2017-11-26T06:39:10.763Z,1.88
2017-11-26T06:40:15.566Z,1.89
2017-11-26T06:41:20.460Z,1.70
2017-11-26T06:42:25.261Z,1.64
2017-11-26T06:43:29.983Z,1.75
2017-11-26T06:44:35.322Z,1.75
2017-11-26T06:45:39.953Z,1.87
2017-11-26T06:46:44.821Z,1.74
2017-11-26T06:47:49.528Z,1.91
2017-11-26T06:48:54.230Z,1.78
2017-11-26T06:49:58.912Z,2.01
2017-11-26T06:51:04.071Z,1.80
2017-11-26T06:52:08.775Z,1.64
2017-11-26T06:53:13.435Z,1.75
2017-11-26T06:54:18.179Z,1.88
2017-11-26T06:55:22.923Z,1.70
2017-11-26T06:56:27.626Z,1.68
2017-11-26T06:57:32.863Z,1.69
2017-11-26T06:58:37.526Z,1.80
2017-11-26T06:59:42.090Z,1.87
2017-11-26T07:00:46.608Z,1.69
2017-11-26T07:01:51.368Z,1.89
2017-11-26T07:02:56.010Z,1.68
2017-11-26T07:04:01.049Z,1.72
2017-11-26T07:05:05.754Z,1.65
2017-11-26T07:06:10.430Z,1.67
2017-11-26T07:07:15.121Z,1.72
2017-11-26T07:08:19.870Z,1.73
2017-11-26T07:09:24.547Z,1.67
2017-11-26T07:10:29.532Z,1.67
2017-11-26T07:11:34.609Z,1.78
2017-11-26T07:12:39.502Z,1.74
2017-11-26T07:13:44.344Z,1.81
2017-11-26T07:14:49.103Z,1.73
2017-11-26T07:15:53.900Z,1.72
2017-11-26T07:16:59.151Z,1.66
2017-11-26T07:18:04.117Z,1.74
2017-11-26T07:19:08.898Z,1.72
2017-11-26T07:20:13.730Z,1.64
2017-11-26T07:21:19.162Z,1.79
2017-11-26T07:22:25.184Z,1.71
2017-11-26T07:23:30.396Z,1.62
2017-11-26T07:24:35.208Z,1.83
2017-11-26T07:25:39.987Z,1.72
2017-11-26T07:26:44.771Z,1.79
2017-11-26T07:27:49.547Z,1.81
2017-11-26T07:28:54.320Z,1.95
2017-11-26T07:29:59.458Z,1.77
2017-11-26T07:31:04.271Z,1.86
2017-11-26T07:32:09.027Z,1.78
2017-11-26T07:33:13.726Z,1.82
2017-11-26T07:34:18.536Z,1.77
2017-11-26T07:35:23.395Z,1.87
2017-11-26T07:36:28.077Z,1.71
2017-11-26T07:37:32.921Z,1.80
2017-11-26T07:38:37.709Z,1.62
2017-11-26T07:39:42.473Z,1.80
2017-11-26T07:40:47.185Z,1.68
2017-11-26T07:41:52.000Z,1.73
2017-11-26T07:42:57.074Z,1.66
2017-11-26T07:44:01.855Z,1.85
2017-11-26T07:45:06.681Z,1.64
2017-11-26T07:46:11.496Z,1.72
2017-11-26T07:47:16.487Z,1.63
2017-11-26T07:48:21.292Z,1.58
2017-11-26T07:49:26.407Z,1.69
2017-11-26T07:50:31.153Z,1.71
2017-11-26T07:51:35.937Z,1.72
2017-11-26T07:52:40.816Z,1.69
2017-11-26T07:53:45.594Z,1.45
2017-11-26T07:54:50.448Z,1.60
2017-11-26T07:55:55.490Z,1.75
2017-11-26T07:57:00.109Z,1.71
2017-11-26T07:58:04.896Z,1.71
2017-11-26T07:59:09.721Z,1.76
2017-11-26T08:00:14.636Z,1.88
2017-11-26T08:01:19.361Z,1.79
2017-11-26T08:02:24.608Z,1.65
2017-11-26T08:03:29.363Z,1.64
2017-11-26T08:04:34.084Z,1.66
2017-11-26T08:05:38.901Z,1.66
2017-11-26T08:06:43.627Z,1.65
2017-11-26T08:07:48.335Z,1.79
2017-11-26T08:08:54.554Z,1.68
2017-11-26T08:09:59.266Z,1.69
2017-11-26T08:11:03.987Z,1.64
2017-11-26T08:12:08.715Z,1.58
2017-11-26T08:13:13.449Z,1.69
2017-11-26T08:14:17.872Z,1.53
2017-11-26T08:15:22.985Z,1.59
2017-11-26T08:16:27.713Z,1.72
2017-11-26T08:17:32.479Z,1.54
2017-11-26T08:18:37.270Z,1.65
2017-11-26T08:19:41.976Z,1.52
2017-11-26T08:20:46.714Z,1.58
2017-11-26T08:21:51.786Z,1.59
2017-11-26T08:22:56.535Z,1.63
2017-11-26T08:24:01.355Z,1.74
2017-11-26T08:25:06.189Z,1.79
2017-11-26T08:26:10.943Z,1.65
2017-11-26T08:27:15.690Z,1.65
2017-11-26T08:28:20.866Z,1.62
2017-11-26T08:29:25.648Z,1.64
2017-11-26T08:30:30.379Z,1.73
2017-11-26T08:31:35.129Z,1.68
2017-11-26T08:32:39.881Z,1.72
2017-11-26T08:33:44.644Z,1.66
2017-11-26T08:34:49.837Z,1.58
2017-11-26T08:35:54.645Z,1.69
2017-11-26T08:36:59.674Z,1.65
2017-11-26T08:38:04.383Z,1.69
2017-11-26T08:39:09.062Z,1.60
2017-11-26T08:40:13.872Z,1.64
2017-11-26T08:41:19.198Z,1.59
2017-11-26T08:42:24.109Z,1.50
2017-11-26T08:43:28.763Z,1.58
2017-11-26T08:44:33.367Z,1.55
2017-11-26T08:45:38.017Z,1.52
2017-11-26T08:46:42.811Z,1.68
2017-11-26T08:47:48.114Z,1.46
2017-11-26T08:48:54.178Z,1.49
2017-11-26T08:49:59.116Z,1.56
2017-11-26T08:51:04.609Z,1.62
2017-11-26T08:52:09.394Z,1.53
2017-11-26T08:53:14.224Z,1.49
2017-11-26T08:54:19.486Z,1.53
2017-11-26T08:55:25.203Z,1.53
2017-11-26T08:56:30.111Z,1.61
2017-11-26T08:57:35.136Z,1.53
2017-11-26T08:58:39.970Z,1.42
2017-11-26T08:59:44.780Z,1.50
2017-11-26T09:00:50.195Z,1.42
2017-11-26T09:01:55.006Z,1.42
2017-11-26T09:02:59.877Z,1.45
2017-11-26T09:04:04.682Z,1.39
2017-11-26T09:05:09.481Z,1.48
2017-11-26T09:06:14.349Z,1.35
2017-11-26T09:07:19.550Z,1.55
2017-11-26T09:08:24.429Z,1.21
2017-11-26T09:09:29.304Z,1.53
2017-11-26T09:10:34.149Z,1.36
2017-11-26T09:11:38.980Z,1.41
2017-11-26T09:12:43.793Z,1.23
2017-11-26T09:13:49.037Z,1.27
2017-11-26T09:14:53.925Z,1.35
2017-11-26T09:15:58.670Z,1.38
2017-11-26T09:17:03.481Z,1.45
2017-11-26T09:18:08.288Z,1.28
2017-11-26T09:19:13.102Z,1.19
2017-11-26T09:20:18.939Z,1.24
2017-11-26T09:21:23.804Z,1.34
2017-11-26T09:22:28.562Z,1.21
2017-11-26T09:23:33.353Z,1.32
2017-11-26T09:24:38.169Z,1.32
2017-11-26T09:25:43.075Z,1.10
2017-11-26T09:26:48.293Z,1.32
2017-11-26T09:27:53.090Z,1.09
2017-11-26T09:28:57.752Z,1.30
2017-11-26T09:30:02.558Z,1.32
2017-11-26T09:31:08.031Z,1.41
2017-11-26T09:32:12.766Z,1.29
2017-11-26T09:33:18.184Z,1.24
2017-11-26T09:34:22.950Z,1.18
2017-11-26T09:35:27.679Z,1.17
2017-11-26T09:36:32.440Z,1.30
2017-11-26T09:37:37.241Z,1.30
2017-11-26T09:38:42.074Z,1.28
2017-11-26T09:39:47.345Z,1.19
2017-11-26T09:40:52.253Z,1.09
2017-11-26T09:41:56.970Z,1.22
2017-11-26T09:43:01.779Z,1.27
2017-11-26T09:44:06.529Z,1.24
2017-11-26T09:45:11.280Z,1.45
2017-11-26T09:46:16.521Z,1.49
2017-11-26T09:47:21.353Z,1.46
2017-11-26T09:48:26.004Z,1.34
2017-11-26T09:49:30.668Z,1.24
2017-11-26T09:50:35.438Z,1.21
2017-11-26T09:51:40.188Z,1.41
2017-11-26T09:52:45.378Z,1.33
2017-11-26T09:53:50.199Z,1.42
2017-11-26T09:54:55.035Z,1.31
2017-11-26T09:55:59.825Z,1.23
2017-11-26T09:57:05.243Z,1.22
2017-11-26T09:58:10.164Z,1.32
2017-11-26T09:59:15.473Z,1.35
2017-11-26T10:00:20.290Z,1.23
2017-11-26T10:01:25.141Z,1.28
2017-11-26T10:02:30.024Z,1.33
2017-11-26T10:03:34.814Z,1.28
2017-11-26T10:04:39.660Z,1.36
2017-11-26T10:05:44.899Z,1.20
2017-11-26T10:06:49.682Z,1.25
2017-11-26T10:07:54.554Z,1.30
2017-11-26T10:08:59.325Z,1.12
2017-11-26T10:10:07.477Z,1.21
2017-11-26T10:11:12.525Z,1.25
2017-11-26T10:12:17.738Z,1.34
2017-11-26T10:13:23.024Z,1.35
2017-11-26T10:14:27.813Z,1.42
2017-11-26T10:15:32.574Z,1.39
2017-11-26T10:16:37.404Z,1.26
2017-11-26T10:17:42.255Z,1.31
2017-11-26T10:18:47.385Z,1.21
2017-11-26T10:19:52.205Z,1.25
2017-11-26T10:20:56.968Z,1.27
2017-11-26T10:22:01.804Z,1.31
2017-11-26T10:23:06.582Z,1.20
2017-11-26T10:24:11.365Z,1.46
2017-11-26T10:25:16.501Z,1.44
2017-11-26T10:26:21.332Z,1.37
2017-11-26T10:27:26.141Z,1.42
2017-11-26T10:28:30.916Z,1.58
2017-11-26T10:29:35.728Z,1.60
2017-11-26T10:30:40.598Z,1.41
2017-11-26T10:31:45.838Z,1.39
2017-11-26T10:32:50.649Z,1.48
2017-11-26T10:33:56.185Z,1.45
2017-11-26T10:35:00.988Z,1.44
2017-11-26T10:36:05.856Z,1.58
2017-11-26T10:37:10.655Z,1.56
2017-11-26T10:38:15.959Z,1.54
2017-11-26T10:39:20.783Z,1.53
2017-11-26T10:40:25.565Z,1.53
2017-11-26T10:41:30.309Z,1.45
2017-11-26T10:42:35.076Z,1.50
2017-11-26T10:43:39.853Z,1.66
2017-11-26T10:44:44.990Z,1.67
2017-11-26T10:45:49.736Z,1.56
2017-11-26T10:46:54.490Z,1.62
2017-11-26T10:47:59.221Z,1.54
2017-11-26T10:49:03.934Z,1.58
2017-11-26T10:50:08.628Z,1.53
2017-11-26T10:51:13.759Z,1.61
2017-11-26T10:52:18.523Z,1.50
2017-11-26T10:53:23.328Z,1.40
2017-11-26T10:54:28.195Z,1.38
2017-11-26T10:55:32.931Z,1.54
2017-11-26T10:56:37.702Z,1.60
2017-11-26T10:57:42.767Z,1.52
2017-11-26T10:58:47.581Z,1.62
2017-11-26T11:15:31.266Z,1.85
2017-11-26T11:16:36.025Z,1.90
2017-11-26T11:17:40.835Z,1.90
2017-11-26T11:18:45.641Z,1.86
2017-11-26T11:19:50.385Z,1.88
2017-11-26T11:20:55.474Z,1.96
2017-11-26T11:22:00.242Z,1.93
2017-11-26T11:23:05.015Z,2.15
2017-11-26T11:24:09.698Z,2.02
2017-11-26T11:25:14.296Z,1.92
2017-11-26T11:26:18.986Z,1.86
2017-11-26T11:27:23.997Z,1.84
2017-11-26T11:28:28.790Z,1.86
2017-11-26T11:29:33.626Z,1.96
2017-11-26T11:30:38.423Z,1.95
2017-11-26T11:31:43.182Z,1.87
2017-11-26T11:32:47.957Z,1.90
2017-11-26T11:33:52.987Z,2.04
2017-11-26T11:34:57.785Z,1.90
2017-11-26T11:36:02.633Z,1.93
2017-11-26T11:37:07.417Z,1.80
2017-11-26T11:38:12.225Z,1.92
2017-11-26T11:39:16.983Z,1.82
2017-11-26T11:40:22.080Z,1.80
2017-11-26T11:41:26.887Z,1.90
2017-11-26T11:42:32.626Z,1.78
2017-11-26T11:43:37.398Z,2.02
2017-11-26T11:44:42.440Z,1.81
2017-11-26T11:45:47.185Z,2.00
2017-11-26T11:46:52.246Z,2.09
2017-11-26T11:47:57.071Z,1.87
2017-11-26T11:49:01.909Z,1.91
2017-11-26T11:50:07.274Z,1.85
2017-11-26T11:51:12.177Z,1.83
2017-11-26T11:52:17.080Z,2.00
2017-11-26T11:53:22.364Z,1.95
2017-11-26T11:54:27.226Z,2.02
2017-11-26T11:55:32.042Z,1.83
2017-11-26T11:56:36.803Z,1.87
2017-11-26T11:57:41.615Z,1.68
2017-11-26T11:58:46.364Z,1.78
2017-11-26T11:59:51.205Z,1.85
2017-11-26T12:00:56.093Z,1.73
2017-11-26T12:02:00.882Z,1.72
2017-11-26T12:03:05.896Z,1.77
2017-11-26T12:04:10.847Z,1.70
2017-11-26T12:05:16.762Z,1.72
2017-11-26T12:06:21.625Z,1.85
2017-11-26T12:07:27.426Z,1.90
2017-11-26T12:08:32.482Z,1.83
2017-11-26T12:09:37.297Z,1.81
2017-11-26T12:10:42.284Z,1.83
2017-11-26T12:11:47.430Z,1.75
2017-11-26T12:12:52.404Z,1.75
2017-11-26T12:13:57.206Z,1.78
2017-11-26T12:15:02.093Z,1.70
2017-11-26T12:16:06.872Z,1.78
2017-11-26T12:17:11.826Z,1.79
2017-11-26T12:18:16.971Z,1.77
2017-11-26T12:19:21.775Z,1.64
2017-11-26T12:20:26.687Z,1.64
2017-11-26T12:21:31.696Z,1.73
2017-11-26T12:22:36.525Z,1.72
2017-11-26T12:23:41.496Z,1.80
2017-11-26T12:24:46.705Z,1.81
2017-11-26T12:25:51.562Z,1.90
2017-11-26T12:26:56.531Z,1.89
2017-11-26T12:28:01.332Z,1.74
2017-11-26T12:29:06.217Z,1.68
2017-11-26T12:30:11.062Z,1.80
2017-11-26T12:31:16.185Z,1.79
2017-11-26T12:32:21.070Z,1.77
2017-11-26T12:33:25.893Z,1.77
2017-11-26T12:34:30.853Z,1.82
2017-11-26T12:35:35.755Z,1.81
2017-11-26T12:36:40.710Z,1.91
2017-11-26T12:37:45.867Z,1.87
2017-11-26T12:38:50.655Z,1.93
2017-11-26T12:39:55.617Z,1.81
2017-11-26T12:41:00.508Z,1.95
2017-11-26T12:42:05.366Z,1.81
2017-11-26T12:43:10.312Z,2.00
2017-11-26T12:44:15.391Z,1.85
2017-11-26T12:45:20.158Z,1.79
2017-11-26T12:46:25.002Z,1.89
2017-11-26T12:47:29.778Z,1.96
2017-11-26T12:48:34.539Z,1.96
2017-11-26T12:49:39.280Z,1.94
2017-11-26T12:50:44.053Z,1.93
2017-11-26T12:51:48.797Z,1.95
2017-11-26T12:52:53.533Z,2.11
2017-11-26T12:53:58.689Z,2.01
2017-11-26T12:55:03.437Z,2.14
2017-11-26T12:56:08.498Z,2.19
2017-11-26T12:57:13.294Z,2.14
2017-11-26T12:58:18.124Z,2.13
2017-11-26T12:59:22.969Z,2.01
2017-11-26T13:00:27.802Z,2.09
2017-11-26T13:01:32.631Z,2.02
2017-11-26T13:02:37.745Z,2.21
2017-11-26T13:03:42.639Z,2.12
2017-11-26T13:04:47.524Z,2.18
2017-11-26T13:05:52.411Z,2.11
2017-11-26T13:06:57.183Z,2.20
2017-11-26T13:08:01.968Z,2.21
2017-11-26T13:09:07.187Z,2.13
2017-11-26T13:10:12.223Z,2.22
2017-11-26T13:11:16.998Z,2.35
2017-11-26T13:12:21.836Z,2.36
2017-11-26T13:13:26.627Z,2.28
2017-11-26T13:14:31.315Z,2.24
2017-11-26T13:15:36.485Z,2.18
2017-11-26T13:16:41.237Z,2.20
2017-11-26T13:17:46.140Z,2.32
2017-11-26T13:18:50.869Z,2.37
2017-11-26T13:19:55.662Z,2.30
2017-11-26T13:21:00.477Z,2.35
2017-11-26T13:22:05.548Z,2.35
2017-11-26T13:23:10.332Z,2.52
2017-11-26T13:24:15.170Z,2.48
2017-11-26T13:25:20.001Z,2.35
2017-11-26T13:26:24.796Z,2.30
2017-11-26T13:27:29.815Z,2.29
2017-11-26T13:28:34.917Z,2.33
2017-11-26T13:29:39.721Z,2.36
2017-11-26T13:30:44.630Z,2.37
2017-11-26T13:31:49.403Z,2.34
2017-11-26T13:32:54.204Z,2.44
2017-11-26T13:33:58.974Z,2.46
2017-11-26T13:35:04.093Z,2.39
2017-11-26T13:36:08.866Z,2.36
2017-11-26T13:37:13.625Z,2.34
2017-11-26T13:38:18.783Z,2.29
2017-11-26T13:39:23.566Z,2.33
2017-11-26T13:40:28.276Z,2.29
2017-11-26T13:41:33.437Z,2.29
2017-11-26T13:42:38.274Z,2.44
2017-11-26T13:43:43.225Z,2.35
2017-11-26T13:44:48.066Z,2.43
2017-11-26T13:45:53.373Z,2.36
2017-11-26T13:46:58.352Z,2.31
2017-11-26T13:48:04.464Z,2.34
2017-11-26T13:49:09.408Z,2.34
2017-11-26T13:50:14.124Z,2.30
2017-11-26T13:51:18.984Z,2.36
2017-11-26T13:52:23.855Z,2.47
2017-11-26T13:53:28.666Z,2.43
2017-11-26T13:54:33.932Z,2.40
2017-11-26T13:55:38.695Z,2.52
2017-11-26T13:56:43.493Z,2.53
2017-11-26T13:57:48.340Z,2.39
2017-11-26T13:58:53.162Z,2.38
2017-11-26T13:59:57.985Z,2.34
2017-11-26T14:01:02.791Z,2.37
2017-11-26T14:02:07.730Z,2.34
2017-11-26T14:03:12.595Z,2.52
2017-11-26T14:04:17.501Z,2.39
2017-11-26T14:05:22.276Z,2.31
2017-11-26T14:06:27.505Z,2.40
2017-11-26T14:07:32.381Z,2.31
2017-11-26T14:08:37.256Z,2.40
2017-11-26T14:09:42.229Z,2.44
2017-11-26T14:10:47.137Z,2.34
2017-11-26T14:11:52.015Z,2.32
2017-11-26T14:12:57.261Z,2.46
2017-11-26T14:14:02.051Z,2.43
2017-11-26T14:15:06.911Z,2.29
2017-11-26T14:16:11.696Z,2.34
2017-11-26T14:17:16.468Z,2.29
2017-11-26T14:18:21.451Z,2.38
2017-11-26T14:19:26.790Z,2.36
2017-11-26T14:20:31.572Z,2.44
2017-11-26T14:21:36.364Z,2.30
2017-11-26T14:22:41.440Z,2.27
2017-11-26T14:23:46.321Z,2.22
2017-11-26T14:24:51.642Z,2.44
2017-11-26T14:25:56.539Z,2.33
2017-11-26T14:27:01.456Z,2.45
2017-11-26T14:28:06.297Z,2.43
2017-11-26T14:29:11.163Z,2.45
2017-11-26T14:59:18.777Z,26.67
2017-11-26T15:00:23.723Z,24.81
2017-11-26T15:01:28.773Z,24.18
2017-11-26T15:02:33.684Z,24.03
2017-11-26T15:03:38.795Z,23.63
2017-11-26T15:04:44.104Z,23.38
2017-11-26T15:05:48.898Z,23.23
2017-11-26T15:06:53.869Z,23.16
2017-11-26T15:07:58.641Z,23.10
2017-11-26T15:09:03.821Z,23.05
2017-11-26T15:10:08.757Z,23.08
2017-11-26T15:11:14.527Z,23.11
2017-11-26T15:12:19.231Z,23.08
2017-11-26T15:13:24.164Z,23.09
2017-11-26T15:31:50.653Z,2.23
2017-11-26T15:32:55.468Z,2.26
2017-11-26T15:34:00.276Z,2.23
2017-11-26T15:35:05.219Z,2.23
2017-11-26T15:36:10.033Z,2.24
2017-11-26T15:37:15.389Z,2.26
2017-11-26T15:38:21.267Z,2.30
2017-11-26T15:39:26.127Z,2.33
2017-11-26T15:40:30.898Z,2.30
2017-11-26T15:43:13.832Z,3.37
2017-11-26T15:44:18.967Z,2.72
2017-11-26T15:45:24.226Z,2.46
2017-11-26T15:46:33.245Z,2.34
2017-11-26T15:47:38.252Z,2.34